Time;durP1;ratioP1;P1;durP2;ratioP2;P2;SDS_P1;SDS_P2;PMS_P1;PMS_P2;Temp;Humidity;BMP_temperature;BMP_pressure;BME280_temperature;BME280_humidity;BME280_pressure;Samples;Min_cycle;Max_cycle;Signal;HPM_P1;HPM_P2
2022/10/17 00:02:25;;;;;;;2.72;0.75;;;;;;;;;;5072981;28;20048;-88
2022/10/17 00:04:52;;;;;;;1.20;1.20;;;;;;;;;;5073022;28;20106;-89
2022/10/17 00:07:18;;;;;;;2.45;1.50;;;;;;;;;;5073272;28;20102;-89
2022/10/17 00:09:45;;;;;;;1.10;0.45;;;;;;;;;;5072730;28;20565;-89
2022/10/17 00:12:11;;;;;;;0.75;0.75;;;;;;;;;;5073581;28;20053;-89
2022/10/17 00:14:38;;;;;;;1.77;1.70;;;;;;;;;;5071862;28;20496;-88
2022/10/17 00:17:06;;;;;;;6.32;1.42;;;;;;;;;;5072938;28;20132;-88
2022/10/17 00:19:32;;;;;;;1.38;1.27;;;;;;;;;;5072459;28;20086;-89
2022/10/17 00:21:59;;;;;;;2.55;2.38;;;;;;;;;;5072320;28;20113;-88
2022/10/17 00:24:25;;;;;;;0.73;0.73;;;;;;;;;;5072441;28;20052;-88
2022/10/17 00:26:52;;;;;;;1.17;1.08;;;;;;;;;;5072918;28;20052;-89
2022/10/17 00:29:18;;;;;;;1.08;0.98;;;;;;;;;;5071469;28;20666;-89
2022/10/17 00:31:45;;;;;;;0.55;0.55;;;;;;;;;;5072759;28;20045;-88
2022/10/17 00:34:13;;;;;;;8.32;1.35;;;;;;;;;;5072301;28;20049;-88
2022/10/17 00:36:39;;;;;;;1.00;0.82;;;;;;;;;;5072683;28;20059;-88
2022/10/17 00:39:06;;;;;;;0.80;0.80;;;;;;;;;;5072284;28;20056;-88
2022/10/17 00:41:33;;;;;;;0.43;0.40;;;;;;;;;;5072343;28;20102;-89
2022/10/17 00:44:01;;;;;;;0.77;0.73;;;;;;;;;;5071072;28;20044;-88
2022/10/17 00:46:29;;;;;;;1.27;1.02;;;;;;;;;;5072115;28;20052;-88
2022/10/17 00:48:56;;;;;;;2.85;2.65;;;;;;;;;;5072053;28;20126;-88
2022/10/17 00:51:28;;;;;;;1.60;1.25;;;;;;;;;;5072069;28;20090;-88
2022/10/17 00:53:55;;;;;;;0.73;0.60;;;;;;;;;;5072392;28;20048;-88
2022/10/17 00:56:21;;;;;;;0.50;0.43;;;;;;;;;;5072424;28;20044;-88
2022/10/17 00:58:48;;;;;;;1.58;1.48;;;;;;;;;;5071995;28;20492;-88
2022/10/17 01:01:15;;;;;;;1.02;0.93;;;;;;;;;;5071184;28;20055;-88
2022/10/17 01:03:41;;;;;;;1.60;1.50;;;;;;;;;;5071758;28;20048;-88
2022/10/17 01:06:08;;;;;;;0.80;0.80;;;;;;;;;;5071999;28;20056;-89
2022/10/17 01:08:36;;;;;;;1.13;0.85;;;;;;;;;;5072359;28;20474;-88
2022/10/17 01:11:06;;;;;;;2.03;1.60;;;;;;;;;;5071792;28;20044;-88
2022/10/17 01:13:36;;;;;;;1.35;1.25;;;;;;;;;;5071717;28;20491;-89
2022/10/17 01:16:08;;;;;;;1.27;0.98;;;;;;;;;;5071779;28;20052;-89
2022/10/17 01:18:39;;;;;;;1.98;1.58;;;;;;;;;;5060218;28;20057;-88
2022/10/17 01:21:12;;;;;;;1.55;1.48;;;;;;;;;;5052143;28;20056;-88
2022/10/17 01:23:59;;;;;;;1.90;1.20;;;;;;;;;;5052069;28;20049;-88
2022/10/17 01:26:33;;;;;;;0.52;0.52;;;;;;;;;;5034297;28;20051;-88
2022/10/17 01:29:17;;;;;;;1.15;1.15;;;;;;;;;;5051832;28;20370;-89
2022/10/17 01:31:46;;;;;;;1.08;0.88;;;;;;;;;;5054016;28;20106;-89
2022/10/17 01:34:15;;;;;;;0.63;0.55;;;;;;;;;;5059078;28;20049;-88
2022/10/17 01:36:47;;;;;;;1.80;1.70;;;;;;;;;;5078770;28;20102;-88
2022/10/17 01:39:17;;;;;;;0.52;0.47;;;;;;;;;;5071727;28;20049;-88
2022/10/17 01:41:46;;;;;;;0.88;0.85;;;;;;;;;;5058297;28;20106;-89
2022/10/17 01:44:14;;;;;;;0.70;0.70;;;;;;;;;;5058345;28;20041;-89
2022/10/17 01:46:42;;;;;;;0.52;0.50;;;;;;;;;;5058489;28;20069;-89
2022/10/17 01:49:11;;;;;;;1.52;1.40;;;;;;;;;;5058340;28;20056;-88
2022/10/17 01:51:38;;;;;;;0.95;0.95;;;;;;;;;;5069377;28;20504;-89
2022/10/17 01:54:09;;;;;;;1.45;1.23;;;;;;;;;;5078005;28;20492;-89
2022/10/17 01:56:37;;;;;;;0.93;0.93;;;;;;;;;;5078564;28;20052;-89
2022/10/17 01:59:05;;;;;;;1.33;1.23;;;;;;;;;;5078382;28;20106;-88
2022/10/17 02:01:32;;;;;;;2.10;2.00;;;;;;;;;;5078219;28;20105;-88
2022/10/17 02:03:59;;;;;;;0.65;0.65;;;;;;;;;;5078100;28;20957;-88
2022/10/17 02:06:27;;;;;;;0.77;0.77;;;;;;;;;;5069887;28;20044;-88
2022/10/17 02:08:53;;;;;;;1.45;1.35;;;;;;;;;;5058112;28;20053;-88
2022/10/17 02:11:21;;;;;;;0.57;0.57;;;;;;;;;;5058180;28;20057;-87
2022/10/17 02:13:52;;;;;;;0.90;0.90;;;;;;;;;;5058902;28;20114;-89
2022/10/17 02:16:24;;;;;;;1.92;1.60;;;;;;;;;;5059170;28;20049;-90
2022/10/17 02:19:05;;;;;;;1.38;1.27;;;;;;;;;;5058054;28;20393;-88
2022/10/17 02:21:38;;;;;;;1.05;0.63;;;;;;;;;;5056481;28;20052;-88
2022/10/17 02:24:08;;;;;;;3.80;0.90;;;;;;;;;;5068024;28;20053;-87
2022/10/17 02:26:37;;;;;;;0.95;0.73;;;;;;;;;;5077863;28;20052;-87
2022/10/17 02:29:07;;;;;;;0.73;0.73;;;;;;;;;;5077801;28;20052;-88
2022/10/17 02:31:36;;;;;;;1.60;0.82;;;;;;;;;;5078138;28;20056;-89
2022/10/17 02:34:05;;;;;;;1.17;1.08;;;;;;;;;;5077690;28;20098;-89
2022/10/17 02:36:35;;;;;;;0.73;0.73;;;;;;;;;;5077965;28;20056;-88
2022/10/17 02:39:03;;;;;;;1.92;1.77;;;;;;;;;;5077860;28;20090;-89
2022/10/17 02:41:30;;;;;;;2.42;2.33;;;;;;;;;;5076919;28;20450;-89
2022/10/17 02:43:57;;;;;;;1.05;0.95;;;;;;;;;;5074824;28;20102;-89
2022/10/17 02:46:24;;;;;;;0.82;0.60;;;;;;;;;;5074920;28;20109;-89
2022/10/17 02:48:52;;;;;;;0.85;0.85;;;;;;;;;;5074916;28;20048;-89
2022/10/17 02:51:25;;;;;;;1.65;0.47;;;;;;;;;;5074640;28;20389;-89
2022/10/17 02:53:56;;;;;;;0.88;0.88;;;;;;;;;;5074922;28;20496;-90
2022/10/17 02:56:24;;;;;;;1.08;0.77;;;;;;;;;;5073585;28;20044;-89
2022/10/17 02:58:52;;;;;;;1.73;1.63;;;;;;;;;;5074805;28;20053;-89
2022/10/17 03:01:19;;;;;;;0.80;0.80;;;;;;;;;;5074406;28;20048;-89
2022/10/17 03:03:45;;;;;;;1.25;1.20;;;;;;;;;;5074629;28;20086;-90
2022/10/17 03:06:12;;;;;;;2.45;2.25;;;;;;;;;;5074525;28;20377;-90
2022/10/17 03:08:38;;;;;;;1.60;1.52;;;;;;;;;;5074627;28;20185;-90
2022/10/17 03:11:06;;;;;;;1.55;1.45;;;;;;;;;;5074044;28;20492;-89
2022/10/17 03:13:33;;;;;;;1.73;1.65;;;;;;;;;;5069866;28;20053;-89
2022/10/17 03:15:59;;;;;;;1.10;1.08;;;;;;;;;;5054216;28;20052;-89
2022/10/17 03:18:26;;;;;;;1.00;1.00;;;;;;;;;;5054267;28;20056;-89
2022/10/17 03:20:52;;;;;;;1.50;1.50;;;;;;;;;;5054529;28;20090;-90
2022/10/17 03:23:19;;;;;;;0.60;0.60;;;;;;;;;;5054205;28;20118;-89
2022/10/17 03:25:45;;;;;;;0.90;0.85;;;;;;;;;;5054403;28;20114;-90
2022/10/17 03:28:13;;;;;;;1.15;1.10;;;;;;;;;;5053937;28;20045;-88
2022/10/17 03:30:40;;;;;;;1.15;1.15;;;;;;;;;;5065998;28;20110;-89
2022/10/17 03:33:06;;;;;;;1.77;1.67;;;;;;;;;;5073939;28;20052;-88
2022/10/17 03:35:33;;;;;;;0.80;0.80;;;;;;;;;;5073668;28;20056;-89
2022/10/17 03:37:59;;;;;;;1.35;1.25;;;;;;;;;;5073755;28;20113;-88
2022/10/17 03:40:25;;;;;;;0.77;0.75;;;;;;;;;;5073418;28;20459;-89
2022/10/17 03:42:52;;;;;;;12.13;1.13;;;;;;;;;;5073674;28;20045;-89
2022/10/17 03:45:20;;;;;;;0.82;0.82;;;;;;;;;;5073289;28;20044;-90
2022/10/17 03:47:46;;;;;;;2.08;1.08;;;;;;;;;;5072717;28;20044;-89
2022/10/17 03:50:13;;;;;;;1.48;1.40;;;;;;;;;;5073629;28;20044;-88
2022/10/17 03:52:40;;;;;;;1.52;1.33;;;;;;;;;;5073608;28;20076;-89
2022/10/17 03:55:07;;;;;;;2.97;2.67;;;;;;;;;;5073251;28;20040;-87
2022/10/17 03:57:34;;;;;;;1.42;1.33;;;;;;;;;;5073422;28;20048;-88
2022/10/17 04:00:00;;;;;;;2.25;2.15;;;;;;;;;;5073373;28;20045;-89
2022/10/17 04:02:28;;;;;;;1.45;1.35;;;;;;;;;;5073387;28;20561;-90
2022/10/17 04:04:55;;;;;;;1.85;1.75;;;;;;;;;;5061116;28;20481;-90
2022/10/17 04:07:21;;;;;;;1.85;1.73;;;;;;;;;;5064937;28;20048;-90
2022/10/17 04:09:48;;;;;;;1.08;1.02;;;;;;;;;;5063513;28;20048;-90
2022/10/17 04:12:15;;;;;;;0.68;0.68;;;;;;;;;;5063140;28;20040;-89
2022/10/17 04:14:41;;;;;;;2.15;1.83;;;;;;;;;;5064167;28;20053;-88
2022/10/17 04:17:08;;;;;;;0.85;0.63;;;;;;;;;;5061865;28;20056;-89
2022/10/17 04:19:35;;;;;;;0.50;0.43;;;;;;;;;;5063482;28;20397;-88
2022/10/17 04:22:02;;;;;;;1.42;1.33;;;;;;;;;;5061880;28;20185;-89
2022/10/17 04:24:29;;;;;;;3.08;2.00;;;;;;;;;;5062958;28;20085;-89
2022/10/17 04:26:55;;;;;;;2.22;2.13;;;;;;;;;;5063124;28;20420;-89
2022/10/17 04:29:22;;;;;;;1.42;1.33;;;;;;;;;;5062231;28;20048;-90
2022/10/17 04:31:51;;;;;;;0.80;0.80;;;;;;;;;;5063077;28;20127;-89
2022/10/17 04:34:17;;;;;;;4.10;3.05;;;;;;;;;;5061392;28;20052;-88
2022/10/17 04:36:46;;;;;;;1.35;1.33;;;;;;;;;;5062695;28;20584;-87
2022/10/17 04:39:12;;;;;;;0.85;0.85;;;;;;;;;;5059975;28;20119;-89
2022/10/17 04:41:39;;;;;;;0.95;0.95;;;;;;;;;;5052296;28;20134;-89
2022/10/17 04:44:05;;;;;;;0.82;0.82;;;;;;;;;;5058972;28;20114;-89
2022/10/17 04:46:33;;;;;;;1.38;1.30;;;;;;;;;;5062830;28;20068;-89
2022/10/17 04:48:59;;;;;;;1.13;0.95;;;;;;;;;;5061015;28;20057;-89
2022/10/17 04:51:26;;;;;;;0.55;0.43;;;;;;;;;;5062446;28;20036;-88
2022/10/17 04:53:54;;;;;;;1.35;1.33;;;;;;;;;;5062119;28;20114;-88
2022/10/17 04:56:22;;;;;;;1.98;1.65;;;;;;;;;;5060060;28;20044;-87
2022/10/17 04:58:50;;;;;;;0.93;0.93;;;;;;;;;;5061333;28;20564;-88
2022/10/17 05:01:17;;;;;;;1.10;1.10;;;;;;;;;;5060869;28;20036;-89
2022/10/17 05:03:44;;;;;;;0.55;0.55;;;;;;;;;;5052345;28;20122;-88
2022/10/17 05:06:11;;;;;;;0.73;0.73;;;;;;;;;;5066328;28;20073;-89
2022/10/17 05:08:38;;;;;;;1.58;1.48;;;;;;;;;;5072193;28;20101;-89
2022/10/17 05:11:14;;;;;;;2.40;2.20;;;;;;;;;;5071625;28;20110;-88
2022/10/17 05:13:41;;;;;;;1.65;1.55;;;;;;;;;;5071213;28;20052;-88
2022/10/17 05:16:07;;;;;;;1.77;1.67;;;;;;;;;;5071942;28;20121;-90
2022/10/17 05:18:34;;;;;;;0.38;0.32;;;;;;;;;;5071794;28;20060;-87
2022/10/17 05:21:02;;;;;;;0.60;0.60;;;;;;;;;;5071691;28;20488;-87
2022/10/17 05:23:29;;;;;;;2.10;1.35;;;;;;;;;;5071691;28;20056;-87
2022/10/17 05:25:56;;;;;;;0.85;0.85;;;;;;;;;;5071202;28;20048;-87
2022/10/17 05:28:23;;;;;;;1.17;1.13;;;;;;;;;;5060108;28;20110;-87
2022/10/17 05:30:50;;;;;;;0.95;0.50;;;;;;;;;;5062928;28;20048;-87
2022/10/17 05:33:16;;;;;;;1.70;1.60;;;;;;;;;;5053472;28;20045;-86
2022/10/17 05:35:43;;;;;;;1.90;1.80;;;;;;;;;;5071193;28;20125;-86
2022/10/17 05:38:09;;;;;;;1.50;1.08;;;;;;;;;;5065319;28;20508;-86
2022/10/17 05:40:37;;;;;;;2.97;0.80;;;;;;;;;;5051675;28;20103;-87
2022/10/17 05:43:03;;;;;;;1.17;0.80;;;;;;;;;;5051524;28;20124;-87
2022/10/17 05:45:31;;;;;;;1.50;1.40;;;;;;;;;;5051334;28;20044;-87
2022/10/17 05:47:58;;;;;;;2.13;1.65;;;;;;;;;;5051506;28;20049;-87
2022/10/17 05:50:24;;;;;;;1.75;1.52;;;;;;;;;;5051289;28;20053;-87
2022/10/17 05:52:52;;;;;;;3.13;1.00;;;;;;;;;;5051243;28;20045;-87
2022/10/17 05:55:19;;;;;;;2.90;2.50;;;;;;;;;;5051212;28;20098;-87
2022/10/17 05:57:45;;;;;;;1.83;1.52;;;;;;;;;;5051388;28;20118;-86
2022/10/17 06:00:13;;;;;;;1.80;1.70;;;;;;;;;;5051278;28;20091;-87
2022/10/17 06:02:40;;;;;;;1.73;1.63;;;;;;;;;;5051347;28;20053;-87
2022/10/17 06:05:07;;;;;;;1.27;1.17;;;;;;;;;;5051158;28;20053;-87
2022/10/17 06:07:35;;;;;;;2.88;2.67;;;;;;;;;;5051499;28;20061;-87
2022/10/17 06:10:01;;;;;;;0.90;0.77;;;;;;;;;;5051130;28;20546;-86
2022/10/17 06:12:28;;;;;;;3.92;2.90;;;;;;;;;;5052316;28;20053;-87
2022/10/17 06:14:54;;;;;;;1.88;1.70;;;;;;;;;;5069523;28;20060;-87
2022/10/17 06:17:21;;;;;;;2.67;2.47;;;;;;;;;;5056449;28;20053;-87
2022/10/17 06:19:49;;;;;;;0.50;0.35;;;;;;;;;;5062813;28;20045;-86
2022/10/17 06:22:15;;;;;;;1.60;1.50;;;;;;;;;;5063306;28;20041;-87
2022/10/17 06:24:42;;;;;;;4.05;2.25;;;;;;;;;;5064528;28;20056;-86
2022/10/17 06:27:08;;;;;;;2.40;2.28;;;;;;;;;;5064468;28;20048;-87
2022/10/17 06:29:35;;;;;;;1.25;1.15;;;;;;;;;;5059835;28;20566;-87
2022/10/17 06:32:01;;;;;;;2.35;1.58;;;;;;;;;;5062838;28;20041;-87
2022/10/17 06:34:28;;;;;;;2.88;2.67;;;;;;;;;;5070155;28;20067;-87
2022/10/17 06:36:56;;;;;;;2.08;1.98;;;;;;;;;;5069856;28;20102;-87
2022/10/17 06:39:25;;;;;;;5.40;4.40;;;;;;;;;;5069186;28;20056;-88
2022/10/17 06:41:52;;;;;;;1.77;1.67;;;;;;;;;;5059238;28;20048;-87
2022/10/17 06:44:18;;;;;;;9.35;2.30;;;;;;;;;;5060600;28;20114;-88
2022/10/17 06:46:45;;;;;;;2.30;2.17;;;;;;;;;;5064449;28;20068;-88
2022/10/17 06:49:11;;;;;;;1.13;1.02;;;;;;;;;;5056408;28;20044;-88
2022/10/17 06:51:38;;;;;;;4.05;1.30;;;;;;;;;;5062731;28;20052;-87
2022/10/17 06:54:06;;;;;;;1.48;1.38;;;;;;;;;;5067631;28;20057;-87
2022/10/17 06:56:32;;;;;;;2.05;1.90;;;;;;;;;;5068093;28;20106;-87
2022/10/17 06:58:59;;;;;;;1.45;1.35;;;;;;;;;;5071057;28;20049;-88
2022/10/17 07:01:25;;;;;;;1.75;1.65;;;;;;;;;;5065165;28;20450;-87
2022/10/17 07:03:52;;;;;;;4.65;2.92;;;;;;;;;;5070012;28;20129;-87
2022/10/17 07:06:18;;;;;;;2.70;2.38;;;;;;;;;;5064414;28;20575;-87
2022/10/17 07:08:45;;;;;;;2.22;2.08;;;;;;;;;;5058895;28;20053;-88
2022/10/17 07:11:14;;;;;;;3.28;3.08;;;;;;;;;;5060600;28;20040;-87
2022/10/17 07:13:40;;;;;;;2.75;2.55;;;;;;;;;;5064993;28;20120;-87
2022/10/17 07:16:07;;;;;;;3.03;2.80;;;;;;;;;;5066788;28;20089;-87
2022/10/17 07:18:34;;;;;;;2.67;2.47;;;;;;;;;;5073214;28;20052;-86
2022/10/17 07:21:00;;;;;;;2.78;2.20;;;;;;;;;;5066719;28;20083;-86
2022/10/17 07:23:27;;;;;;;5.53;3.83;;;;;;;;;;5071809;28;20052;-87
2022/10/17 07:25:58;;;;;;;2.40;2.30;;;;;;;;;;5072839;28;20056;-86
2022/10/17 07:28:26;;;;;;;2.83;2.40;;;;;;;;;;5073783;28;20462;-87
2022/10/17 07:30:53;;;;;;;2.38;2.17;;;;;;;;;;5071995;28;20052;-87
2022/10/17 07:33:19;;;;;;;5.80;3.05;;;;;;;;;;5073392;28;20574;-88
2022/10/17 07:35:46;;;;;;;2.95;2.70;;;;;;;;;;5073187;28;20056;-87
2022/10/17 07:38:12;;;;;;;2.72;2.38;;;;;;;;;;5073138;28;20053;-87
2022/10/17 07:40:39;;;;;;;3.42;3.22;;;;;;;;;;5054171;28;20848;-86
2022/10/17 07:43:05;;;;;;;1.80;1.70;;;;;;;;;;5071250;28;20048;-87
2022/10/17 07:45:33;;;;;;;2.65;2.45;;;;;;;;;;5052625;28;20489;-85
2022/10/17 07:48:00;;;;;;;2.08;1.90;;;;;;;;;;5052952;28;20505;-86
2022/10/17 07:50:26;;;;;;;1.88;1.75;;;;;;;;;;5055746;28;20040;-87
2022/10/17 07:52:53;;;;;;;5.47;2.65;;;;;;;;;;5072270;28;20098;-87
2022/10/17 07:55:19;;;;;;;3.03;2.83;;;;;;;;;;5072464;28;20052;-87
2022/10/17 07:57:46;;;;;;;1.08;1.05;;;;;;;;;;5066938;28;20045;-87
2022/10/17 08:00:13;;;;;;;4.10;3.63;;;;;;;;;;5073731;28;20066;-88
2022/10/17 08:02:41;;;;;;;3.13;2.83;;;;;;;;;;5055727;28;20064;-86
2022/10/17 08:05:07;;;;;;;3.20;3.00;;;;;;;;;;5055227;28;20131;-86
2022/10/17 08:07:34;;;;;;;5.07;3.30;;;;;;;;;;5065857;28;20110;-87
2022/10/17 08:10:00;;;;;;;2.78;2.60;;;;;;;;;;5058573;28;20492;-86
2022/10/17 08:12:30;;;;;;;2.20;2.08;;;;;;;;;;5066407;28;20102;-87
2022/10/17 08:14:57;;;;;;;2.03;1.75;;;;;;;;;;5052466;28;20127;-86
2022/10/17 08:17:23;;;;;;;2.15;2.03;;;;;;;;;;5064903;28;20056;-87
2022/10/17 08:19:51;;;;;;;8.20;4.03;;;;;;;;;;5072785;28;20056;-86
2022/10/17 08:22:18;;;;;;;3.88;3.58;;;;;;;;;;5058630;28;20048;-86
2022/10/17 08:24:45;;;;;;;2.67;2.47;;;;;;;;;;5052263;28;20115;-87
2022/10/17 08:27:12;;;;;;;2.97;2.53;;;;;;;;;;5052223;28;20045;-87
2022/10/17 08:29:39;;;;;;;3.03;2.72;;;;;;;;;;5051440;28;20390;-86
2022/10/17 08:32:08;;;;;;;4.22;3.92;;;;;;;;;;5064577;28;20476;-88
2022/10/17 08:34:34;;;;;;;4.82;4.50;;;;;;;;;;5061511;28;20056;-87
2022/10/17 08:37:02;;;;;;;3.40;3.20;;;;;;;;;;5065650;28;20040;-87
2022/10/17 08:39:29;;;;;;;2.88;2.67;;;;;;;;;;5067554;28;20439;-88
2022/10/17 08:42:03;;;;;;;2.35;2.15;;;;;;;;;;5059309;28;20052;-87
2022/10/17 08:44:35;;;;;;;3.83;3.60;;;;;;;;;;5069161;28;20488;-87
2022/10/17 08:47:04;;;;;;;3.30;3.10;;;;;;;;;;5067244;28;20048;-87
2022/10/17 08:49:33;;;;;;;2.85;2.30;;;;;;;;;;5071781;28;20538;-87
2022/10/17 08:52:03;;;;;;;4.47;3.97;;;;;;;;;;5070567;28;20464;-87
2022/10/17 08:54:36;;;;;;;5.60;3.72;;;;;;;;;;5071494;28;20099;-87
2022/10/17 08:57:03;;;;;;;5.15;3.70;;;;;;;;;;5067195;28;20097;-87
2022/10/17 08:59:30;;;;;;;4.15;3.78;;;;;;;;;;5071331;28;20447;-87
2022/10/17 09:01:59;;;;;;;2.30;2.10;;;;;;;;;;5071028;28;20053;-87
2022/10/17 09:04:40;;;;;;;3.47;2.53;;;;;;;;;;5064248;28;20489;-88
2022/10/17 09:07:13;;;;;;;2.83;2.65;;;;;;;;;;5065931;28;20381;-88
2022/10/17 09:09:42;;;;;;;3.70;3.40;;;;;;;;;;5068974;28;20577;-87
2022/10/17 09:12:15;;;;;;;8.85;3.22;;;;;;;;;;5066012;28;20044;-88
2022/10/17 09:14:54;;;;;;;4.47;4.07;;;;;;;;;;5063079;28;20049;-88
2022/10/17 09:17:28;;;;;;;2.15;2.03;;;;;;;;;;5063706;28;20048;-88
2022/10/17 09:19:59;;;;;;;3.42;3.22;;;;;;;;;;5077879;28;20060;-87
2022/10/17 09:22:30;;;;;;;4.55;4.18;;;;;;;;;;5064515;28;20053;-87
2022/10/17 09:24:56;;;;;;;;;;;;;;;;;;5053524;28;20045;-88
2022/10/17 09:27:24;;;;;;;1.85;1.42;;;;;;;;;;5068312;28;19966;-87
2022/10/17 09:29:52;;;;;;;4.13;3.83;;;;;;;;;;5070712;28;20053;-88
2022/10/17 09:32:21;;;;;;;4.07;3.58;;;;;;;;;;5078944;28;20376;-87
2022/10/17 09:34:47;;;;;;;3.08;2.88;;;;;;;;;;5072176;28;20435;-89
2022/10/17 09:37:14;;;;;;;2.90;2.70;;;;;;;;;;5068883;28;20097;-88
2022/10/17 09:39:43;;;;;;;4.25;3.33;;;;;;;;;;5070916;28;20397;-88
2022/10/17 09:42:12;;;;;;;3.70;2.45;;;;;;;;;;5063908;28;20057;-88
2022/10/17 09:44:40;;;;;;;2.58;2.10;;;;;;;;;;5068441;28;20048;-88
2022/10/17 09:47:18;;;;;;;3.42;3.22;;;;;;;;;;5069539;28;20057;-88
2022/10/17 09:49:46;;;;;;;4.40;4.07;;;;;;;;;;5070862;28;20465;-88
2022/10/17 09:52:14;;;;;;;2.97;2.70;;;;;;;;;;5063919;28;20079;-88
2022/10/17 09:54:44;;;;;;;1.63;1.52;;;;;;;;;;5070604;28;20037;-87
2022/10/17 09:57:11;;;;;;;4.28;3.63;;;;;;;;;;5067704;28;20044;-88
2022/10/17 09:59:38;;;;;;;3.55;2.35;;;;;;;;;;5081951;28;20093;-87
2022/10/17 10:02:08;;;;;;;4.13;3.15;;;;;;;;;;5075868;28;20053;-88
2022/10/17 10:04:34;;;;;;;6.97;3.60;;;;;;;;;;5071881;28;20470;-88
2022/10/17 10:07:01;;;;;;;3.58;2.22;;;;;;;;;;5069126;28;20052;-88
2022/10/17 10:09:29;;;;;;;3.30;2.97;;;;;;;;;;5064453;28;20053;-88
2022/10/17 10:11:58;;;;;;;4.30;3.95;;;;;;;;;;5064497;28;20558;-88
2022/10/17 10:14:28;;;;;;;3.40;3.10;;;;;;;;;;5057060;28;20436;-88
2022/10/17 10:16:55;;;;;;;5.05;4.65;;;;;;;;;;5071530;28;20471;-88
2022/10/17 10:19:26;;;;;;;5.35;4.65;;;;;;;;;;5065809;28;20401;-88
2022/10/17 10:21:55;;;;;;;8.68;4.22;;;;;;;;;;5053853;28;20049;-88
2022/10/17 10:24:22;;;;;;;3.40;2.92;;;;;;;;;;5056631;28;20049;-88
2022/10/17 10:26:49;;;;;;;2.80;2.60;;;;;;;;;;5054939;28;20045;-87
2022/10/17 10:29:22;;;;;;;3.38;2.92;;;;;;;;;;5054793;28;20053;-89
2022/10/17 10:31:49;;;;;;;3.25;2.95;;;;;;;;;;5054312;28;20057;-88
2022/10/17 10:34:18;;;;;;;5.22;4.60;;;;;;;;;;5053850;28;20057;-88
2022/10/17 10:36:50;;;;;;;5.90;5.15;;;;;;;;;;5064600;28;20058;-88
2022/10/17 10:39:31;;;;;;;4.50;3.95;;;;;;;;;;5067850;28;20052;-88
2022/10/17 10:41:58;;;;;;;5.93;4.57;;;;;;;;;;5080734;28;20105;-89
2022/10/17 10:44:27;;;;;;;4.05;3.75;;;;;;;;;;5054945;28;20505;-89
2022/10/17 10:47:15;;;;;;;4.65;4.22;;;;;;;;;;5071688;28;20101;-89
2022/10/17 10:49:41;;;;;;;4.30;3.90;;;;;;;;;;5065486;28;20352;-89
2022/10/17 10:52:08;;;;;;;4.93;4.50;;;;;;;;;;5068829;28;20040;-89
2022/10/17 10:54:36;;;;;;;5.28;3.17;;;;;;;;;;5065976;28;20113;-88
2022/10/17 10:57:05;;;;;;;4.85;4.45;;;;;;;;;;5064607;28;20390;-88
2022/10/17 10:59:35;;;;;;;4.85;3.38;;;;;;;;;;5062412;28;20198;-88
2022/10/17 11:02:04;;;;;;;4.13;3.83;;;;;;;;;;5061569;28;20130;-88
2022/10/17 11:04:34;;;;;;;5.18;3.53;;;;;;;;;;5067585;28;20059;-88
2022/10/17 11:07:03;;;;;;;3.90;3.60;;;;;;;;;;5061333;28;20083;-88
2022/10/17 11:09:34;;;;;;;4.30;3.95;;;;;;;;;;5065711;28;20091;-88
2022/10/17 11:12:03;;;;;;;6.57;3.45;;;;;;;;;;5063545;28;20044;-88
2022/10/17 11:14:37;;;;;;;3.17;2.88;;;;;;;;;;5060402;28;20040;-88
2022/10/17 11:17:17;;;;;;;4.97;4.53;;;;;;;;;;5063175;28;20094;-88
2022/10/17 11:19:46;;;;;;;5.75;3.47;;;;;;;;;;5066919;28;20044;-87
2022/10/17 11:22:15;;;;;;;3.45;3.10;;;;;;;;;;5055394;28;20106;-87
2022/10/17 11:24:46;;;;;;;3.70;3.40;;;;;;;;;;5053423;28;20049;-88
2022/10/17 11:27:13;;;;;;;3.63;3.28;;;;;;;;;;5053373;28;20053;-88
2022/10/17 11:29:44;;;;;;;4.53;2.63;;;;;;;;;;5061832;28;20121;-88
2022/10/17 11:32:12;;;;;;;3.88;3.03;;;;;;;;;;5066300;28;20052;-88
2022/10/17 11:34:41;;;;;;;2.67;2.47;;;;;;;;;;5060326;28;20106;-88
2022/10/17 11:37:11;;;;;;;4.32;4.03;;;;;;;;;;5058417;28;20122;-88
2022/10/17 11:39:41;;;;;;;3.63;2.85;;;;;;;;;;5052911;28;20095;-88
2022/10/17 11:42:11;;;;;;;3.63;2.95;;;;;;;;;;5065724;28;20045;-88
2022/10/17 11:44:39;;;;;;;3.22;2.92;;;;;;;;;;5067007;28;20040;-88
2022/10/17 11:47:11;;;;;;;6.65;4.60;;;;;;;;;;5072780;28;20056;-88
2022/10/17 11:49:42;;;;;;;3.20;2.90;;;;;;;;;;5052976;28;20087;-87
2022/10/17 11:52:19;;;;;;;2.78;2.58;;;;;;;;;;5052577;28;20048;-87
2022/10/17 11:54:48;;;;;;;2.83;2.63;;;;;;;;;;5052722;28;20091;-87
2022/10/17 11:57:30;;;;;;;5.13;2.85;;;;;;;;;;5052653;28;20064;-88
2022/10/17 12:00:00;;;;;;;3.70;2.83;;;;;;;;;;5052671;28;20395;-88
2022/10/17 12:02:26;;;;;;;;;;;;;;;;;;5063799;28;20110;-87
2022/10/17 12:05:00;;;;;;;2.92;2.63;;;;;;;;;;5052886;28;19920;-87
2022/10/17 12:07:30;;;;;;;2.75;2.50;;;;;;;;;;5060880;28;20052;-88
2022/10/17 12:09:59;;;;;;;3.20;2.65;;;;;;;;;;5063835;28;20120;-87
2022/10/17 12:12:27;;;;;;;3.38;3.13;;;;;;;;;;5062784;28;20044;-87
2022/10/17 12:14:53;;;;;;;3.97;2.88;;;;;;;;;;5070246;28;20052;-88
2022/10/17 12:17:39;;;;;;;4.82;2.88;;;;;;;;;;5052114;28;20056;-88
2022/10/17 12:20:24;;;;;;;4.07;3.78;;;;;;;;;;5072382;28;20443;-88
2022/10/17 12:22:53;;;;;;;2.88;2.38;;;;;;;;;;5070030;28;20119;-88
2022/10/17 12:25:21;;;;;;;4.75;2.65;;;;;;;;;;5071835;28;20500;-88
2022/10/17 12:27:48;;;;;;;2.42;2.22;;;;;;;;;;5067565;28;20053;-88
2022/10/17 12:30:17;;;;;;;2.97;2.60;;;;;;;;;;5063772;28;20052;-88
2022/10/17 12:32:57;;;;;;;2.53;1.95;;;;;;;;;;5053421;28;20049;-88
2022/10/17 12:35:24;;;;;;;2.10;1.67;;;;;;;;;;5061737;28;20040;-89
2022/10/17 12:38:02;;;;;;;3.38;3.05;;;;;;;;;;5062471;28;20036;-87
2022/10/17 12:40:56;;;;;;;3.20;2.80;;;;;;;;;;5062404;28;20052;-88
2022/10/17 12:43:55;;;;;;;2.35;2.15;;;;;;;;;;4998849;28;20109;-88
2022/10/17 12:46:49;;;;;;;4.43;2.15;;;;;;;;;;4999579;28;20485;-87
2022/10/17 12:49:23;;;;;;;3.08;2.45;;;;;;;;;;4945020;29;20047;-88
2022/10/17 12:52:06;;;;;;;3.13;2.00;;;;;;;;;;4950912;28;20138;-87
2022/10/17 12:54:39;;;;;;;3.10;2.90;;;;;;;;;;4938134;29;20103;-88
2022/10/17 12:57:13;;;;;;;5.93;2.80;;;;;;;;;;4932271;29;20055;-87
2022/10/17 12:59:43;;;;;;;2.22;2.00;;;;;;;;;;4949093;29;20139;-88
2022/10/17 13:02:14;;;;;;;2.78;2.58;;;;;;;;;;4933753;29;20095;-87
2022/10/17 13:04:41;;;;;;;3.75;2.85;;;;;;;;;;4933765;29;20043;-88
2022/10/17 13:07:16;;;;;;;2.78;2.58;;;;;;;;;;4943134;29;20055;-87
2022/10/17 13:09:44;;;;;;;4.47;4.18;;;;;;;;;;4951404;29;20055;-88
2022/10/17 13:12:13;;;;;;;2.95;2.38;;;;;;;;;;4940436;29;20070;-87
2022/10/17 13:14:41;;;;;;;3.38;3.08;;;;;;;;;;4940294;29;20135;-88
2022/10/17 13:17:20;;;;;;;2.72;2.53;;;;;;;;;;4931918;29;20055;-88
2022/10/17 13:19:47;;;;;;;3.95;3.65;;;;;;;;;;4960410;28;20226;-88
2022/10/17 13:22:15;;;;;;;2.92;2.63;;;;;;;;;;4975646;28;20129;-88
2022/10/17 13:24:41;;;;;;;3.03;2.75;;;;;;;;;;5004440;28;20053;-87
2022/10/17 13:27:22;;;;;;;2.55;2.25;;;;;;;;;;5070637;28;20114;-88
2022/10/17 13:29:49;;;;;;;2.17;2.03;;;;;;;;;;5054789;28;20059;-88
2022/10/17 13:32:16;;;;;;;2.35;2.15;;;;;;;;;;5051585;28;20453;-87
2022/10/17 13:34:42;;;;;;;3.15;2.78;;;;;;;;;;5054578;28;20091;-87
2022/10/17 13:37:11;;;;;;;3.67;3.35;;;;;;;;;;5062176;28;20835;-87
2022/10/17 13:39:40;;;;;;;3.92;3.63;;;;;;;;;;5063435;28;20458;-87
2022/10/17 13:42:07;;;;;;;2.60;1.98;;;;;;;;;;5055333;28;20049;-87
2022/10/17 13:44:35;;;;;;;2.30;2.13;;;;;;;;;;5065415;28;20048;-87
2022/10/17 13:47:02;;;;;;;3.33;3.08;;;;;;;;;;5069310;28;20045;-86
2022/10/17 13:49:32;;;;;;;3.65;3.35;;;;;;;;;;5071244;28;20056;-88
2022/10/17 13:52:00;;;;;;;2.30;2.05;;;;;;;;;;5071706;28;20082;-87
2022/10/17 13:54:34;;;;;;;2.05;1.50;;;;;;;;;;5053898;28;20103;-88
2022/10/17 13:57:01;;;;;;;3.08;2.30;;;;;;;;;;5051376;28;20049;-87
2022/10/17 13:59:30;;;;;;;5.05;1.88;;;;;;;;;;5054069;28;20048;-88
2022/10/17 14:02:00;;;;;;;5.03;2.10;;;;;;;;;;5071240;28;20052;-87
2022/10/17 14:04:26;;;;;;;2.53;2.33;;;;;;;;;;5059164;28;20053;-88
2022/10/17 14:06:53;;;;;;;1.92;1.80;;;;;;;;;;5051308;28;20107;-88
2022/10/17 14:09:22;;;;;;;2.60;1.60;;;;;;;;;;5051371;28;20053;-88
2022/10/17 14:11:56;;;;;;;1.98;1.65;;;;;;;;;;5051052;28;20496;-88
2022/10/17 14:14:24;;;;;;;3.15;2.00;;;;;;;;;;5051252;28;20048;-88
2022/10/17 14:16:51;;;;;;;1.73;1.63;;;;;;;;;;5050935;28;20089;-88
2022/10/17 14:19:24;;;;;;;2.33;2.13;;;;;;;;;;5051133;28;20049;-88
2022/10/17 14:21:52;;;;;;;2.25;1.50;;;;;;;;;;5051099;28;20080;-88
2022/10/17 14:24:27;;;;;;;2.60;2.40;;;;;;;;;;5051038;28;20099;-87
2022/10/17 14:26:55;;;;;;;2.35;2.25;;;;;;;;;;5051134;28;20053;-88
2022/10/17 14:29:23;;;;;;;3.30;3.10;;;;;;;;;;5051485;28;20424;-87
2022/10/17 14:31:52;;;;;;;2.20;2.00;;;;;;;;;;5066693;28;20492;-88
2022/10/17 14:34:23;;;;;;;3.05;2.13;;;;;;;;;;5061809;28;20045;-88
2022/10/17 14:36:51;;;;;;;2.72;2.53;;;;;;;;;;5051170;28;20107;-88
2022/10/17 14:39:19;;;;;;;2.45;2.25;;;;;;;;;;5063571;28;20496;-88
2022/10/17 14:41:47;;;;;;;1.35;1.25;;;;;;;;;;5062462;28;20118;-88
2022/10/17 14:44:16;;;;;;;2.17;2.08;;;;;;;;;;5062488;28;20048;-87
2022/10/17 14:46:45;;;;;;;1.60;1.50;;;;;;;;;;5070207;28;20146;-89
2022/10/17 14:49:16;;;;;;;1.75;1.65;;;;;;;;;;5069383;28;20050;-89
2022/10/17 14:51:58;;;;;;;1.92;1.70;;;;;;;;;;5076484;28;20055;-89
2022/10/17 14:54:27;;;;;;;4.85;1.67;;;;;;;;;;5073532;28;20049;-89